Add date Part number Description Manufacture PDF
09-12-2017 LM139A m Voltage Comparators LM13.A/LM23 National Semiconductor LM139A datasheet
09-12-2017 LM239A m Voltage Comparators LM13.A/LM23 National Semiconductor LM239A datasheet
09-12-2017 LM339A m Voltage Comparators LM13.A/LM23 National Semiconductor LM339A datasheet
09-12-2017 LM711 National Semiconductor LM711 datasheet
09-12-2017 LM711C National Semiconductor LM711C datasheet
09-12-2017 LM1514 National Semiconductor LM1514 datasheet
09-12-2017 DH0034 National Semiconductor DH0034 datasheet
09-12-2017 DH0034C Level Translators/Buffers DH0034/D National Semiconductor DH0034C datasheet
09-12-2017 LC-40LE700E PORTUGUÊS ESPAÑOL NEDERLANDS ITAL Sharp LC-40LE700E datasheet
09-12-2017 LC-40LE700S PORTUGUÊS ESPAÑOL NEDERLANDS ITAL Sharp LC-40LE700S datasheet
09-12-2017 LC-46LE700E PORTUGUÊS ESPAÑOL NEDERLANDS ITAL Sharp LC-46LE700E datasheet
09-12-2017 LC-46LE700S PORTUGUÊS ESPAÑOL NEDERLANDS ITAL Sharp LC-46LE700S datasheet
09-12-2017 LC-52LE700E PORTUGUÊS ESPAÑOL NEDERLANDS ITAL Sharp LC-52LE700E datasheet
09-12-2017 LT108-S7 LT108-S7/SP8 I = 100 A PN IPN IP LEM LT108-S7 datasheet
09-12-2017 LT108-SP8 LT108-S7/SP8 I = 100 A PN IPN IP LEM LT108-SP8 datasheet
09-12-2017 ITC2000-S Current transducer ITC 2000-S/SP2 LEM ITC2000-S datasheet
09-12-2017 ITC2000-SP2 Current transducer ITC 2000-S/SP2 LEM ITC2000-SP2 datasheet
09-12-2017 LT1082 U U LT1082 1A High Voltage, Effic Linear Technology LT1082 datasheet
09-12-2017 HAD-11ms60b1-5Sd7 Pulse Sensors Series Hall Sensor C KLASCHKA HAD-11ms60b1-5Sd7 datasheet
09-12-2017 HAD-11ms60b1-5Sd1 Pulse Sensors Series Hall Sensor C KLASCHKA HAD-11ms60b1-5Sd1 datasheet
09-12-2017 LC-32LE155M LC-32LE155M LC-39LE155M LED BACKLIG Sharp LC-32LE155M datasheet
09-12-2017 LC-39LE155M LC-32LE155M LC-39LE155M LED BACKLIG Sharp LC-39LE155M datasheet
09-12-2017 LC-24LE155M LC-24LE155M LED BACKLIGHT TV OPERAT Sharp LC-24LE155M datasheet
09-12-2017 LC-32LE240M TopPage LC-32LE240M/340M(1stEditio Sharp LC-32LE240M datasheet
09-12-2017 LC-32LE340M TopPage LC-32LE240M/340M(1stEditio Sharp LC-32LE340M datasheet
09-12-2017 LC-32LE700E PORTUGUÊS ESPAÑOL NEDERLANDS ITAL Sharp LC-32LE700E datasheet
09-12-2017 LC-32LE700S PORTUGUÊS ESPAÑOL NEDERLANDS ITAL Sharp LC-32LE700S datasheet
09-12-2017 LC-52LE700S PORTUGUÊS ESPAÑOL NEDERLANDS ITAL Sharp LC-52LE700S datasheet
09-12-2017 LC-70LE951X LC-70LE951X LC-70LE950X LC-60LE951X Sharp LC-70LE951X datasheet
09-12-2017 LC-70LE950X LC-70LE951X LC-70LE950X LC-60LE951X Sharp LC-70LE950X datasheet
09-12-2017 LC-60LE951X LC-70LE951X LC-70LE950X LC-60LE951X Sharp LC-60LE951X datasheet
09-12-2017 LC-60LE950X LC-70LE951X LC-70LE950X LC-60LE951X Sharp LC-60LE950X datasheet
09-12-2017 LC-32LE244E TopPage LC-32LE244E/144E SERVICE Sharp LC-32LE244E datasheet
09-12-2017 LC-32LE144E TopPage LC-32LE244E/144E SERVICE Sharp LC-32LE144E datasheet
09-12-2017 LM139A Philips Semiconductors Military Lin Philips LM139A datasheet
09-12-2017 LM139A Texas Instruments LM139A datasheet
09-12-2017 LM260 Voltage Comparators LM160/LM260/LM National Semiconductor LM260 datasheet
09-12-2017 LM261 LM161 LM261 LM361 High Speed Differ National Semiconductor LM261 datasheet
09-12-2017 JSM1012S5V1 JSM10 Series DC-DC Converter 10 W XP Power JSM1012S5V1 datasheet
09-12-2017 JSM1012S05 JSM10 Series DC-DC Converter 10 W XP Power JSM1012S05 datasheet
09-12-2017 JSM1012S3V3 JSM10 Series DC-DC Converter 10 W XP Power JSM1012S3V3 datasheet
09-12-2017 LM711 LM711/I DUAL COMPARATOR DUAL HIGH Fairchild Semiconductor LM711 datasheet
09-12-2017 LM710C Voltage Comparators LM710C voltage National Semiconductor LM710C datasheet
09-12-2017 JCM2048S15 DC-DC 15/20 Watts JCM Series xppo XP Power JCM2048S15 datasheet
09-12-2017 JCM2048S05 DC-DC 15/20 Watts JCM Series xppo XP Power JCM2048S05 datasheet
09-12-2017 JCM2024D15 DC-DC 15/20 Watts JCM Series xppo XP Power JCM2024D15 datasheet
09-12-2017 JCM2048S3V3 DC-DC 15/20 Watts JCM Series xppo XP Power JCM2048S3V3 datasheet
09-12-2017 JSM1012S12 JSM10 Series DC-DC Converter 10 W XP Power JSM1012S12 datasheet
09-12-2017 M54992P MITSUBISHI M5 Mitsubishi M54992P datasheet
09-12-2017 M54975FP MITSUBISHI M5 Mitsubishi M54975FP datasheet
09-12-2017 M54975P MITSUBISHI M5 Mitsubishi M54975P datasheet
09-12-2017 M54972FP MITSUBISHI M5 Mitsubishi M54972FP datasheet
09-12-2017 M54972P MITSUBISHI M5 Mitsubishi M54972P datasheet
09-12-2017 M54564FP MITSUBISHI SEMICONDUCTOR Mitsubishi M54564FP datasheet
09-12-2017 M54548AL Mitsubishi M54548AL datasheet
09-12-2017 M5243FP Mitsubishi M5243FP datasheet
09-12-2017 M5243AP Mitsubishi M5243AP datasheet
09-12-2017 M5238FP www.chipdocs.com www Mitsubishi M5238FP datasheet
09-12-2017 M52339ASP Mitsubishi M52339ASP datasheet
09-12-2017 M5232FP Mitsubishi M5232FP datasheet
09-12-2017 M5222FP Mitsubishi M5222FP datasheet
09-12-2017 M5222L Mitsubishi M5222L datasheet
09-12-2017 M5219FP Mitsubishi M5219FP datasheet
09-12-2017 M5219P Mitsubishi M5219P datasheet
09-12-2017 M54977P MITSUBISHI M5 Mitsubishi M54977P datasheet
09-12-2017 DM74123 DM54123 DM74123 Dual Retriggerable National Semiconductor DM74123 datasheet
09-12-2017 M5239L Mitsubishi M5239L datasheet
09-12-2017 M5238P www.chipdocs.com www Mitsubishi M5238P datasheet
09-12-2017 M5232L Mitsubishi M5232L datasheet
09-12-2017 M5222P Mitsubishi M5222P datasheet
09-12-2017 M5219L Mitsubishi M5219L datasheet
09-12-2017 JTN1aS-PA-F-DC5V JT-N PCB type High switching capac Panasonic JTN1aS-PA-F-DC5V datasheet
09-12-2017 JWK2548S3V3 JWK25 Series DC-DC Converter 25 W XP Power JWK2548S3V3 datasheet
09-12-2017 JWK2548S05 JWK25 Series DC-DC Converter 25 W XP Power JWK2548S05 datasheet
09-12-2017 JWK2548S12 JWK25 Series DC-DC Converter 25 W XP Power JWK2548S12 datasheet
09-12-2017 JWK2548S15 JWK25 Series DC-DC Converter 25 W XP Power JWK2548S15 datasheet
09-12-2017 JWK2548D12 JWK25 Series DC-DC Converter 25 W XP Power JWK2548D12 datasheet
09-12-2017 JWK2548D15 JWK25 Series DC-DC Converter 25 W XP Power JWK2548D15 datasheet
09-12-2017 JTK3024S3V3 JTK30 Series DC-DC Converter 30 W XP Power JTK3024S3V3 datasheet
09-12-2017 JTK3024S05 JTK30 Series DC-DC Converter 30 W XP Power JTK3024S05 datasheet
09-12-2017 JTK3024S12 JTK30 Series DC-DC Converter 30 W XP Power JTK3024S12 datasheet
09-12-2017 JTK3024S15 JTK30 Series DC-DC Converter 30 W XP Power JTK3024S15 datasheet
09-12-2017 JTK3024D12 JTK30 Series DC-DC Converter 30 W XP Power JTK3024D12 datasheet
09-12-2017 JTK3024D15 JTK30 Series DC-DC Converter 30 W XP Power JTK3024D15 datasheet
09-12-2017 JTK3048S3V3 JTK30 Series DC-DC Converter 30 W XP Power JTK3048S3V3 datasheet
09-12-2017 JTK3048S05 JTK30 Series DC-DC Converter 30 W XP Power JTK3048S05 datasheet
09-12-2017 JTK3048S12 JTK30 Series DC-DC Converter 30 W XP Power JTK3048S12 datasheet
09-12-2017 JTK3048S15 JTK30 Series DC-DC Converter 30 W XP Power JTK3048S15 datasheet
09-12-2017 JTK3048D12 JTK30 Series DC-DC Converter 30 W XP Power JTK3048D12 datasheet
09-12-2017 JTK3048D15 JTK30 Series DC-DC Converter 30 W XP Power JTK3048D15 datasheet
09-12-2017 3RC1004 KSR1004(3RC1004) 硅 NPN 数字 BLUE ROCKET ELECTRONICS 3RC1004 datasheet
09-12-2017 KSR1102 KSR1102 KSR1102 Switching Applica Fairchild Semiconductor KSR1102 datasheet
09-12-2017 KSR1102 KSR1102(3RC1102) 硅 NPN 数字 BLUE ROCKET ELECTRONICS KSR1102 datasheet
09-12-2017 3RC1102 KSR1102(3RC1102) 硅 NPN 数字 BLUE ROCKET ELECTRONICS 3RC1102 datasheet
09-12-2017 UN2114 UN2114(3RA2114) 硅 PNP 数字三 LZG UN2114 datasheet
09-12-2017 3RA2114 UN2114(3RA2114) 硅 PNP 数字三 LZG 3RA2114 datasheet
09-12-2017 XP04314 Composite Transistors XP04314 (XP43 Panasonic Semiconductor XP04314 datasheet
09-12-2017 JTK1524S12 DC-DC 15/20 Watts JTK Series xppo XP Power JTK1524S12 datasheet
09-12-2017 JTK1524S15 DC-DC 15/20 Watts JTK Series xppo XP Power JTK1524S15 datasheet
09-12-2017 JTK1524D05 DC-DC 15/20 Watts JTK Series xppo XP Power JTK1524D05 datasheet
09-12-2017 JTK1524D12 DC-DC 15/20 Watts JTK Series xppo XP Power JTK1524D12 datasheet
09-12-2017 JTK1524D15 DC-DC 15/20 Watts JTK Series xppo XP Power JTK1524D15 datasheet
09-12-2017 JTK1548S3V3 DC-DC 15/20 Watts JTK Series xppo XP Power JTK1548S3V3 datasheet
09-12-2017 JTK1548S05 DC-DC 15/20 Watts JTK Series xppo XP Power JTK1548S05 datasheet
09-12-2017 JTK1548S12 DC-DC 15/20 Watts JTK Series xppo XP Power JTK1548S12 datasheet
09-12-2017 JTK1548S15 DC-DC 15/20 Watts JTK Series xppo XP Power JTK1548S15 datasheet
09-12-2017 JTK1548D05 DC-DC 15/20 Watts JTK Series xppo XP Power JTK1548D05 datasheet
09-12-2017 JTK1548D12 DC-DC 15/20 Watts JTK Series xppo XP Power JTK1548D12 datasheet
09-12-2017 JTK1548D15 DC-DC 15/20 Watts JTK Series xppo XP Power JTK1548D15 datasheet
09-12-2017 JTK2024S3V3 DC-DC 15/20 Watts JTK Series xppo XP Power JTK2024S3V3 datasheet
09-12-2017 JTK2024S05 DC-DC 15/20 Watts JTK Series xppo XP Power JTK2024S05 datasheet
09-12-2017 JTK2024S12 DC-DC 15/20 Watts JTK Series xppo XP Power JTK2024S12 datasheet
09-12-2017 JTK2024S15 DC-DC 15/20 Watts JTK Series xppo XP Power JTK2024S15 datasheet
09-12-2017 JTK2024D12 DC-DC 15/20 Watts JTK Series xppo XP Power JTK2024D12 datasheet
09-12-2017 JTK2024D15 DC-DC 15/20 Watts JTK Series xppo XP Power JTK2024D15 datasheet
09-12-2017 JTK2048S3V3 DC-DC 15/20 Watts JTK Series xppo XP Power JTK2048S3V3 datasheet
09-12-2017 JTK2048S05 DC-DC 15/20 Watts JTK Series xppo XP Power JTK2048S05 datasheet
09-12-2017 JTK2048S12 DC-DC 15/20 Watts JTK Series xppo XP Power JTK2048S12 datasheet
09-12-2017 JTK2048S15 DC-DC 15/20 Watts JTK Series xppo XP Power JTK2048S15 datasheet
09-12-2017 JTK2048D12 DC-DC 15/20 Watts JTK Series xppo XP Power JTK2048D12 datasheet
09-12-2017 JTK2048D15 DC-DC 15/20 Watts JTK Series xppo XP Power JTK2048D15 datasheet
09-12-2017 JWK2524S3V3 JWK25 Series DC-DC Converter 25 W XP Power JWK2524S3V3 datasheet
09-12-2017 JWK2524S05 JWK25 Series DC-DC Converter 25 W XP Power JWK2524S05 datasheet
09-12-2017 JWK2524S12 JWK25 Series DC-DC Converter 25 W XP Power JWK2524S12 datasheet
09-12-2017 JWK2524S15 JWK25 Series DC-DC Converter 25 W XP Power JWK2524S15 datasheet
09-12-2017 JWK2524D12 JWK25 Series DC-DC Converter 25 W XP Power JWK2524D12 datasheet
09-12-2017 JWK2524D15 JWK25 Series DC-DC Converter 25 W XP Power JWK2524D15 datasheet
09-12-2017 JSM2512S05 JSM25 Series DC-DC Converter 25 W XP Power JSM2512S05 datasheet
09-12-2017 JSM2512S12 JSM25 Series DC-DC Converter 25 W XP Power JSM2512S12 datasheet
09-12-2017 JSM2512S15 JSM25 Series DC-DC Converter 25 W XP Power JSM2512S15 datasheet
09-12-2017 JSM2512D12 JSM25 Series DC-DC Converter 25 W XP Power JSM2512D12 datasheet
09-12-2017 JSM2512D15 JSM25 Series DC-DC Converter 25 W XP Power JSM2512D15 datasheet
09-12-2017 JSM2524S3V3 JSM25 Series DC-DC Converter 25 W XP Power JSM2524S3V3 datasheet
09-12-2017 JSM2524S05 JSM25 Series DC-DC Converter 25 W XP Power JSM2524S05 datasheet
09-12-2017 JSM2524S12 JSM25 Series DC-DC Converter 25 W XP Power JSM2524S12 datasheet
09-12-2017 JSM2524S15 JSM25 Series DC-DC Converter 25 W XP Power JSM2524S15 datasheet
09-12-2017 JSM2524D12 JSM25 Series DC-DC Converter 25 W XP Power JSM2524D12 datasheet
09-12-2017 JSM2524D15 JSM25 Series DC-DC Converter 25 W XP Power JSM2524D15 datasheet
09-12-2017 JSM2548S3V3 JSM25 Series DC-DC Converter 25 W XP Power JSM2548S3V3 datasheet
09-12-2017 JSM2548S05 JSM25 Series DC-DC Converter 25 W XP Power JSM2548S05 datasheet
09-12-2017 JSM2548S12 JSM25 Series DC-DC Converter 25 W XP Power JSM2548S12 datasheet
09-12-2017 JSM2548S15 JSM25 Series DC-DC Converter 25 W XP Power JSM2548S15 datasheet
09-12-2017 JSM2548D12 JSM25 Series DC-DC Converter 25 W XP Power JSM2548D12 datasheet
09-12-2017 JSM2548D15 JSM25 Series DC-DC Converter 25 W XP Power JSM2548D15 datasheet
09-12-2017 JCM3012S3V3 JCM30 Series DC-DC Converter 30 W XP Power JCM3012S3V3 datasheet
09-12-2017 JCM3012S05 JCM30 Series DC-DC Converter 30 W XP Power JCM3012S05 datasheet
09-12-2017 JCM3012S12 JCM30 Series DC-DC Converter 30 W XP Power JCM3012S12 datasheet
09-12-2017 JCM3012S15 JCM30 Series DC-DC Converter 30 W XP Power JCM3012S15 datasheet
09-12-2017 JCM3012D12 JCM30 Series DC-DC Converter 30 W XP Power JCM3012D12 datasheet
09-12-2017 JCM3012D15 JCM30 Series DC-DC Converter 30 W XP Power JCM3012D15 datasheet
09-12-2017 JCM3024S3V3 JCM30 Series DC-DC Converter 30 W XP Power JCM3024S3V3 datasheet
09-12-2017 JCM3024S05 JCM30 Series DC-DC Converter 30 W XP Power JCM3024S05 datasheet
09-12-2017 JCM3024S12 JCM30 Series DC-DC Converter 30 W XP Power JCM3024S12 datasheet
09-12-2017 JCM3024S15 JCM30 Series DC-DC Converter 30 W XP Power JCM3024S15 datasheet
09-12-2017 JCM3024D12 JCM30 Series DC-DC Converter 30 W XP Power JCM3024D12 datasheet
09-12-2017 JCM3024D15 JCM30 Series DC-DC Converter 30 W XP Power JCM3024D15 datasheet
09-12-2017 JCM3048S3V3 JCM30 Series DC-DC Converter 30 W XP Power JCM3048S3V3 datasheet
09-12-2017 JCM3048S05 JCM30 Series DC-DC Converter 30 W XP Power JCM3048S05 datasheet
09-12-2017 JCM3048S12 JCM30 Series DC-DC Converter 30 W XP Power JCM3048S12 datasheet
09-12-2017 JCM3048S15 JCM30 Series DC-DC Converter 30 W XP Power JCM3048S15 datasheet
09-12-2017 JCM3048D12 JCM30 Series DC-DC Converter 30 W XP Power JCM3048D12 datasheet
09-12-2017 JCM3048D15 JCM30 Series DC-DC Converter 30 W XP Power JCM3048D15 datasheet
09-12-2017 JWK1024S3V3 JWK10 Series DC-DC Converter 10 W XP Power JWK1024S3V3 datasheet
09-12-2017 JWK1024S05 JWK10 Series DC-DC Converter 10 W XP Power JWK1024S05 datasheet
09-12-2017 JWK1024S5V1 JWK10 Series DC-DC Converter 10 W XP Power JWK1024S5V1 datasheet
09-12-2017 JWK1024S12 JWK10 Series DC-DC Converter 10 W XP Power JWK1024S12 datasheet
09-12-2017 JWK1024S15 JWK10 Series DC-DC Converter 10 W XP Power JWK1024S15 datasheet
09-12-2017 JWK1024S24 JWK10 Series DC-DC Converter 10 W XP Power JWK1024S24 datasheet
09-12-2017 JWK1024D05 JWK10 Series DC-DC Converter 10 W XP Power JWK1024D05 datasheet
09-12-2017 JWK1024D12 JWK10 Series DC-DC Converter 10 W XP Power JWK1024D12 datasheet
09-12-2017 JWK1024D15 JWK10 Series DC-DC Converter 10 W XP Power JWK1024D15 datasheet
09-12-2017 JWK1048S3V3 JWK10 Series DC-DC Converter 10 W XP Power JWK1048S3V3 datasheet
09-12-2017 JWK1048S05 JWK10 Series DC-DC Converter 10 W XP Power JWK1048S05 datasheet
09-12-2017 JWK1048S5V1 JWK10 Series DC-DC Converter 10 W XP Power JWK1048S5V1 datasheet
09-12-2017 JWK1048S12 JWK10 Series DC-DC Converter 10 W XP Power JWK1048S12 datasheet
09-12-2017 JWK1048S15 JWK10 Series DC-DC Converter 10 W XP Power JWK1048S15 datasheet
09-12-2017 JWK1048S24 JWK10 Series DC-DC Converter 10 W XP Power JWK1048S24 datasheet
09-12-2017 JWK1048D05 JWK10 Series DC-DC Converter 10 W XP Power JWK1048D05 datasheet
09-12-2017 JWK1048D12 JWK10 Series DC-DC Converter 10 W XP Power JWK1048D12 datasheet
09-12-2017 JWK1048D15 JWK10 Series DC-DC Converter 10 W XP Power JWK1048D15 datasheet
09-12-2017 JTK1524S3V3 DC-DC 15/20 Watts JTK Series xppo XP Power JTK1524S3V3 datasheet
09-12-2017 JTK1524S05 DC-DC 15/20 Watts JTK Series xppo XP Power JTK1524S05 datasheet
09-12-2017 JSM2512S3V3 JSM25 Series DC-DC Converter 25 W XP Power JSM2512S3V3 datasheet
09-12-2017 JCM2048D12 DC-DC 15/20 Watts JCM Series xppo XP Power JCM2048D12 datasheet
09-12-2017 JCM2048D15 DC-DC 15/20 Watts JCM Series xppo XP Power JCM2048D15 datasheet
09-12-2017 JCM2048S12 DC-DC 15/20 Watts JCM Series xppo XP Power JCM2048S12 datasheet
09-12-2017 JCM1548D15 DC-DC 15/20 Watts JCM Series xppo XP Power JCM1548D15 datasheet
09-12-2017 JCM1548D12 DC-DC 15/20 Watts JCM Series xppo XP Power JCM1548D12 datasheet
09-12-2017 JTN1aS-PA-F-DC6V JT-N PCB type High switching capac Panasonic JTN1aS-PA-F-DC6V datasheet
09-12-2017 JTN1aS-PA-F-DC9V JT-N PCB type High switching capac Panasonic JTN1aS-PA-F-DC9V datasheet
09-12-2017 JTN1aS-PA-F-DC12V JT-N PCB type High switching capac Panasonic JTN1aS-PA-F-DC12V datasheet
09-12-2017 JTN1aS-PA-F-DC15V JT-N PCB type High switching capac Panasonic JTN1aS-PA-F-DC15V datasheet
09-12-2017 JTN1aS-PA-F-DC18V JT-N PCB type High switching capac Panasonic JTN1aS-PA-F-DC18V datasheet
09-12-2017 JTN1aS-PA-F-DC24V JT-N PCB type High switching capac Panasonic JTN1aS-PA-F-DC24V datasheet
09-12-2017 JTN1aS-TMP-F-DC5V JT-N PCB type High switching capac Panasonic JTN1aS-TMP-F-DC5V datasheet
09-12-2017 JTN1aS-TMP-F-DC6V JT-N PCB type High switching capac Panasonic JTN1aS-TMP-F-DC6V datasheet
09-12-2017 JTN1aS-TMP-F-DC9V JT-N PCB type High switching capac Panasonic JTN1aS-TMP-F-DC9V datasheet
09-12-2017 JTN1aS-TMP-F-DC12V JT-N PCB type High switching capac Panasonic JTN1aS-TMP-F-DC12V datasheet
09-12-2017 JTN1aS-TMP-F-DC15V JT-N PCB type High switching capac Panasonic JTN1aS-TMP-F-DC15V datasheet
09-12-2017 JTN1aS-TMP-F-DC18V JT-N PCB type High switching capac Panasonic JTN1aS-TMP-F-DC18V datasheet
09-12-2017 JTN1aS-TMP-F-DC24V JT-N PCB type High switching capac Panasonic JTN1aS-TMP-F-DC24V datasheet
09-12-2017 JSM1024S05 JSM10 Series DC-DC Converter 10 W XP Power JSM1024S05 datasheet
09-12-2017 JSM1024S5V1 JSM10 Series DC-DC Converter 10 W XP Power JSM1024S5V1 datasheet
09-12-2017 JSM1024S12 JSM10 Series DC-DC Converter 10 W XP Power JSM1024S12 datasheet
09-12-2017 JSM1024S15 JSM10 Series DC-DC Converter 10 W XP Power JSM1024S15 datasheet
09-12-2017 JSM1024D05 JSM10 Series DC-DC Converter 10 W XP Power JSM1024D05 datasheet
09-12-2017 JSM1024D12 JSM10 Series DC-DC Converter 10 W XP Power JSM1024D12 datasheet
09-12-2017 JSM1024D15 JSM10 Series DC-DC Converter 10 W XP Power JSM1024D15 datasheet
09-12-2017 JSM1048S3V3 JSM10 Series DC-DC Converter 10 W XP Power JSM1048S3V3 datasheet
09-12-2017 JSM1048S05 JSM10 Series DC-DC Converter 10 W XP Power JSM1048S05 datasheet
09-12-2017 JSM1048S5V1 JSM10 Series DC-DC Converter 10 W XP Power JSM1048S5V1 datasheet
09-12-2017 JSM1048S12 JSM10 Series DC-DC Converter 10 W XP Power JSM1048S12 datasheet
09-12-2017 JSM1048S15 JSM10 Series DC-DC Converter 10 W XP Power JSM1048S15 datasheet
09-12-2017 JSM1048D05 JSM10 Series DC-DC Converter 10 W XP Power JSM1048D05 datasheet
09-12-2017 JCM1548S15 DC-DC 15/20 Watts JCM Series xppo XP Power JCM1548S15 datasheet
09-12-2017 JCM1548S05 DC-DC 15/20 Watts JCM Series xppo XP Power JCM1548S05 datasheet
09-12-2017 JCM1548S12 DC-DC 15/20 Watts JCM Series xppo XP Power JCM1548S12 datasheet
09-12-2017 JSM1048D12 JSM10 Series DC-DC Converter 10 W XP Power JSM1048D12 datasheet
09-12-2017 JSM1048D15 JSM10 Series DC-DC Converter 10 W XP Power JSM1048D15 datasheet
09-12-2017 JCM1512S3V3 DC-DC 15/20 Watts JCM Series xppo XP Power JCM1512S3V3 datasheet
09-12-2017 M54HC193 M54/M74HC192 M54/M74HC193 HC192 - STMicroelectronics M54HC193 datasheet
09-12-2017 JCM1512S05 DC-DC 15/20 Watts JCM Series xppo XP Power JCM1512S05 datasheet
09-12-2017 JCM1512S12 DC-DC 15/20 Watts JCM Series xppo XP Power JCM1512S12 datasheet
09-12-2017 JCM1512S15 DC-DC 15/20 Watts JCM Series xppo XP Power JCM1512S15 datasheet
09-12-2017 JCM1512D05 DC-DC 15/20 Watts JCM Series xppo XP Power JCM1512D05 datasheet
09-12-2017 JCM1512D12 DC-DC 15/20 Watts JCM Series xppo XP Power JCM1512D12 datasheet
09-12-2017 JCM1512D15 DC-DC 15/20 Watts JCM Series xppo XP Power JCM1512D15 datasheet
09-12-2017 JCM1524S3V3 DC-DC 15/20 Watts JCM Series xppo XP Power JCM1524S3V3 datasheet
09-12-2017 JCM1524S05 DC-DC 15/20 Watts JCM Series xppo XP Power JCM1524S05 datasheet
09-12-2017 JCM1524S12 DC-DC 15/20 Watts JCM Series xppo XP Power JCM1524S12 datasheet
09-12-2017 JCM1524S15 DC-DC 15/20 Watts JCM Series xppo XP Power JCM1524S15 datasheet
09-12-2017 JCM1524D05 DC-DC 15/20 Watts JCM Series xppo XP Power JCM1524D05 datasheet
09-12-2017 JCM1524D12 DC-DC 15/20 Watts JCM Series xppo XP Power JCM1524D12 datasheet
09-12-2017 JCM1524D15 DC-DC 15/20 Watts JCM Series xppo XP Power JCM1524D15 datasheet
09-12-2017 JCM1548S3V3 DC-DC 15/20 Watts JCM Series xppo XP Power JCM1548S3V3 datasheet
09-12-2017 M74HC192 M54/M74HC192 M54/M74HC193 HC192 - STMicroelectronics M74HC192 datasheet
09-12-2017 M56694FP MITSUBISHI M5 Mitsubishi M56694FP datasheet
09-12-2017 M56768SP ( DataSheet : www..com ) Mitsubishi M56768SP datasheet
09-12-2017 M56768FP ( DataSheet : www..com ) Mitsubishi M56768FP datasheet
09-12-2017 M56769SP ( DataSheet : www..com ) Mitsubishi M56769SP datasheet
09-12-2017 M56769FP ( DataSheet : www..com ) Mitsubishi M56769FP datasheet
09-12-2017 M56770SP Mitsubishi M56770SP datasheet
09-12-2017 M56770FP Mitsubishi M56770FP datasheet
09-12-2017 M58478P Mitsubishi M58478P datasheet
09-12-2017 M58494-XXXP Mitsubishi M58494-XXXP datasheet
09-12-2017 M58609-04P www..com www. Mitsubishi M58609-04P datasheet
09-12-2017 M58609-04S www..com www. Mitsubishi M58609-04S datasheet
09-12-2017 M58LW064A M58LW064A M58LW064B 64 Mbit (x16 an STMicroelectronics M58LW064A datasheet
09-12-2017 M58LW064B M58LW064A M58LW064B 64 Mbit (x16 an STMicroelectronics M58LW064B datasheet
09-12-2017 M74VHC594 74VHC594 8 BIT SHIFT REGISTER WITH STMicroelectronics M74VHC594 datasheet
09-12-2017 CS7210S CS7210S ○R 非隔离降压型 L Huajing Microelectronics CS7210S datasheet
09-12-2017 MJE13001C0 MJE13001C0 Rev.F Apr.-2017 DATA SH BLUE ROCKET ELECTRONICS MJE13001C0 datasheet
09-12-2017 MJE13001A0 MJE13001A0 Rev.F Apr.-2017 DATA SH BLUE ROCKET ELECTRONICS MJE13001A0 datasheet
09-12-2017 JCM1548D05 DC-DC 15/20 Watts JCM Series xppo XP Power JCM1548D05 datasheet
09-12-2017 JCM2024D12 DC-DC 15/20 Watts JCM Series xppo XP Power JCM2024D12 datasheet
09-12-2017 KSR1004 KSR1004(3RC1004) 硅 NPN 数字 BLUE ROCKET ELECTRONICS KSR1004 datasheet
09-12-2017 3C92C Sensing and Control Hi-Reliability TT 3C92C datasheet
09-12-2017 3N244 Sensing and Control Hi-Reliability TT 3N244 datasheet
09-12-2017 3N262 Sensing and Control Hi-Reliability TT 3N262 datasheet
09-12-2017 3C91C Sensing and Control Hi-Reliability TT 3C91C datasheet
09-12-2017 LM711I LM711/I DUAL COMPARATOR DUAL HIGH Fairchild Semiconductor LM711I datasheet
09-12-2017 3N243 Sensing and Control Hi-Reliability TT 3N243 datasheet
09-12-2017 3N245 Sensing and Control Hi-Reliability TT 3N245 datasheet
09-12-2017 3N261 Sensing and Control Hi-Reliability TT 3N261 datasheet
09-12-2017 MDT10P10BE MDT10P10(BE) 1. General Descriptio Micon Design MDT10P10BE datasheet
09-12-2017 MDT10P10 MDT10P10(BE) 1. General Descriptio Micon Design MDT10P10 datasheet
09-12-2017 JSM1012S15 JSM10 Series DC-DC Converter 10 W XP Power JSM1012S15 datasheet
09-12-2017 JSM1012D05 JSM10 Series DC-DC Converter 10 W XP Power JSM1012D05 datasheet
09-12-2017 JSM1012D12 JSM10 Series DC-DC Converter 10 W XP Power JSM1012D12 datasheet
09-12-2017 JSM1012D15 JSM10 Series DC-DC Converter 10 W XP Power JSM1012D15 datasheet
09-12-2017 JSM1024S3V3 JSM10 Series DC-DC Converter 10 W XP Power JSM1024S3V3 datasheet
09-12-2017 DS460S POWER Data Sheet Total Output Powe Artesyn DS460S datasheet
09-12-2017 DS460S-3-003 POWER Data Sheet Total Output Powe Artesyn DS460S-3-003 datasheet
09-12-2017 DS460S-3-004 POWER Data Sheet Total Output Powe Artesyn DS460S-3-004 datasheet
09-12-2017 DS460S-3-005 POWER Data Sheet Total Output Powe Artesyn DS460S-3-005 datasheet
09-12-2017 DS460S-3 DS460S-3 460 Watts Distributed Powe Artesyn DS460S-3 datasheet
09-12-2017 DS460S-3 DS460S-3 460 Watts Distributed Powe Emerson DS460S-3 datasheet
09-12-2017 AA10C-048L-050S Astec Industry Standard www.DataSh Astec America AA10C-048L-050S datasheet
09-12-2017 AA15C-048L-033S Astec Industry Standard www.DataSh Astec America AA15C-048L-033S datasheet
09-12-2017 AA15C-048L-050S Astec Industry Standard www.DataSh Astec America AA15C-048L-050S datasheet
09-12-2017 AA15C-048L-120S Astec Industry Standard www.DataSh Astec America AA15C-048L-120S datasheet
09-12-2017 M215HGE-P02 PRODUCT SPECIFICATION Doc. Number : CHIMEI Innolux M215HGE-P02 datasheet
09-12-2017 LPS60 Embedded Power for Business-Critica Astec America LPS60 datasheet
09-12-2017 3N263 Sensing and Control Hi-Reliability TT 3N263 datasheet
09-12-2017 3C92CHR Product Bulletin 3C92C August 1998 OPTEK 3C92CHR datasheet
09-12-2017 3C92C Product Bulletin 3C92C August 1998 OPTEK 3C92C datasheet
09-12-2017 3C91C 3C91C/ 3C92C Optocoupler with Photo TEMIC 3C91C datasheet
09-12-2017 3C92C 3C91C/ 3C92C Optocoupler with Photo TEMIC 3C92C datasheet
09-12-2017 3C92CTX Product Bulletin 3C92C August 1998 OPTEK 3C92CTX datasheet
09-12-2017 3C92CTXV Product Bulletin 3C92C August 1998 OPTEK 3C92CTXV datasheet
09-12-2017 MDA110A MDA110A 普通整流管模块 Liuj Liujing MDA110A datasheet
09-12-2017 MDK110 TECHSEM Features: n Isolated mou TECHSEM MDK110 datasheet
09-12-2017 MD110 TECHSEM Features: n Isolated mou TECHSEM MD110 datasheet
09-12-2017 MDC110A Feature ●International standard p GUERTE MDC110A datasheet
09-12-2017 MDA110A Feature ●International standard p GUERTE MDA110A datasheet
09-12-2017 MDK110A Feature ●International standard p GUERTE MDK110A datasheet
09-12-2017 MDC110 TECHSEM Features: n Isolated mou TECHSEM MDC110 datasheet
09-12-2017 MDA110 TECHSEM Features: n Isolated mou TECHSEM MDA110 datasheet
09-12-2017 MDK110 MDK110 ; MDA110 ; MDC110 Glass Pas ASEMI MDK110 datasheet
09-12-2017 MDA110 MDK110 ; MDA110 ; MDC110 Glass Pas ASEMI MDA110 datasheet
09-12-2017 MDC110 MDK110 ; MDA110 ; MDC110 Glass Pas ASEMI MDC110 datasheet
09-12-2017 MJE13001CT MJE13001CT Rev.E Mar.-2016 DATA SH BLUE ROCKET ELECTRONICS MJE13001CT datasheet
09-12-2017 MJE13003DGT MJE13003DGT Rev.E Mar.-2016 DATA S BLUE ROCKET ELECTRONICS MJE13003DGT datasheet
09-12-2017 MJE13003FT MJE13003FT Rev.E Mar.-2016 DATA SH BLUE ROCKET ELECTRONICS MJE13003FT datasheet
09-12-2017 MJE13001AT MJE13001AT Rev.E Mar.-2016 DATA SH BLUE ROCKET ELECTRONICS MJE13001AT datasheet
09-12-2017 MJE13005DRB MJE13005DRB Rev.E May.-2016 DATA S BLUE ROCKET ELECTRONICS MJE13005DRB datasheet
09-12-2017 MJE13007VB MJE13007VB Rev.A May.-2016 DATA SH BLUE ROCKET ELECTRONICS MJE13007VB datasheet
09-12-2017 BLD122D BLD122D Rev.E Mar.-2016 DATA SHEET BLUE ROCKET ELECTRONICS BLD122D datasheet
09-12-2017 BLD123D BLD123D Rev.E Mar.-2016 DATA SHEET BLUE ROCKET ELECTRONICS BLD123D datasheet
09-12-2017 MJE13001 MCC TM Micro Commercial Components MCC MJE13001 datasheet
09-12-2017 JCM2012S15 DC-DC 15/20 Watts JCM Series xppo XP Power JCM2012S15 datasheet
09-12-2017 JCM2012D12 DC-DC 15/20 Watts JCM Series xppo XP Power JCM2012D12 datasheet
09-12-2017 JCM2012D15 DC-DC 15/20 Watts JCM Series xppo XP Power JCM2012D15 datasheet
09-12-2017 JCM2024S3V3 DC-DC 15/20 Watts JCM Series xppo XP Power JCM2024S3V3 datasheet
09-12-2017 JCM2024S05 DC-DC 15/20 Watts JCM Series xppo XP Power JCM2024S05 datasheet
09-12-2017 JCM2024S12 DC-DC 15/20 Watts JCM Series xppo XP Power JCM2024S12 datasheet
09-12-2017 JCM2024S15 DC-DC 15/20 Watts JCM Series xppo XP Power JCM2024S15 datasheet
09-12-2017 JCM2012S3V3 DC-DC 15/20 Watts JCM Series xppo XP Power JCM2012S3V3 datasheet
09-12-2017 JCM2012S05 DC-DC 15/20 Watts JCM Series xppo XP Power JCM2012S05 datasheet
09-12-2017 JCM2012S12 DC-DC 15/20 Watts JCM Series xppo XP Power JCM2012S12 datasheet


The site has been moved : DatasheetsPDF.com
Since 2005 - HOME - Link US - All - Contact Us -